sensor_id;sensor_type;location;lat;lon;timestamp;pressure;altitude;pressure_sealevel;temperature;humidity
72465;BME280;60471;52.150;4.508;2022-09-12T00:01:15;101457.69;;;17.67;75.14
72465;BME280;60471;52.150;4.508;2022-09-12T00:03:44;101451.22;;;17.71;74.81
72465;BME280;60471;52.150;4.508;2022-09-12T00:06:19;101452.56;;;17.64;74.89
72465;BME280;60471;52.150;4.508;2022-09-12T00:08:48;101443.63;;;17.78;74.63
72465;BME280;60471;52.150;4.508;2022-09-12T00:11:14;101453.16;;;17.82;74.22
72465;BME280;60471;52.150;4.508;2022-09-12T00:13:41;101450.78;;;17.77;74.27
72465;BME280;60471;52.150;4.508;2022-09-12T00:16:16;101442.38;;;17.83;74.20
72465;BME280;60471;52.150;4.508;2022-09-12T00:18:46;101451.13;;;17.85;74.32
72465;BME280;60471;52.150;4.508;2022-09-12T00:21:14;101440.34;;;17.87;73.81
72465;BME280;60471;52.150;4.508;2022-09-12T00:23:42;101444.72;;;17.88;74.15
72465;BME280;60471;52.150;4.508;2022-09-12T00:26:09;101448.91;;;17.92;73.61
72465;BME280;60471;52.150;4.508;2022-09-12T00:28:37;101441.09;;;17.76;74.18
72465;BME280;60471;52.150;4.508;2022-09-12T00:31:09;101448.72;;;17.68;74.36
72465;BME280;60471;52.150;4.508;2022-09-12T00:33:38;101447.22;;;17.64;74.54
72465;BME280;60471;52.150;4.508;2022-09-12T00:36:07;101445.19;;;17.67;74.34
72465;BME280;60471;52.150;4.508;2022-09-12T00:38:42;101436.31;;;17.54;74.48
72465;BME280;60471;52.150;4.508;2022-09-12T00:41:36;101429.38;;;17.52;74.83
72465;BME280;60471;52.150;4.508;2022-09-12T00:47:41;101437.75;;;17.33;75.12
72465;BME280;60471;52.150;4.508;2022-09-12T00:50:06;101433.38;;;17.32;75.30
72465;BME280;60471;52.150;4.508;2022-09-12T00:52:43;101434.41;;;17.17;75.88
72465;BME280;60471;52.150;4.508;2022-09-12T00:55:23;101430.97;;;17.15;75.75
72465;BME280;60471;52.150;4.508;2022-09-12T00:58:02;101432.25;;;17.09;76.04
72465;BME280;60471;52.150;4.508;2022-09-12T01:00:33;101427.41;;;17.01;76.41
72465;BME280;60471;52.150;4.508;2022-09-12T01:03:04;101425.78;;;16.99;76.32
72465;BME280;60471;52.150;4.508;2022-09-12T01:05:36;101435.13;;;16.92;76.47
72465;BME280;60471;52.150;4.508;2022-09-12T01:08:09;101426.38;;;16.90;76.17
72465;BME280;60471;52.150;4.508;2022-09-12T01:10:37;101424.69;;;16.89;76.42
72465;BME280;60471;52.150;4.508;2022-09-12T01:13:07;101425.53;;;16.89;76.21
72465;BME280;60471;52.150;4.508;2022-09-12T01:15:38;101423.88;;;16.74;76.68
72465;BME280;60471;52.150;4.508;2022-09-12T01:21:46;101419.56;;;16.86;76.52
72465;BME280;60471;52.150;4.508;2022-09-12T01:30:22;101409.75;;;16.86;76.10
72465;BME280;60471;52.150;4.508;2022-09-12T01:38:30;101409.28;;;16.79;76.44
72465;BME280;60471;52.150;4.508;2022-09-12T01:41:09;101397.78;;;16.65;77.13
72465;BME280;60471;52.150;4.508;2022-09-12T01:44:02;101396.47;;;16.72;76.94
72465;BME280;60471;52.150;4.508;2022-09-12T01:46:55;101400.63;;;16.76;76.70
72465;BME280;60471;52.150;4.508;2022-09-12T01:55:17;101385.13;;;16.68;76.69
72465;BME280;60471;52.150;4.508;2022-09-12T01:58:14;101384.66;;;16.76;76.56
72465;BME280;60471;52.150;4.508;2022-09-12T02:01:05;101376.16;;;16.84;76.05
72465;BME280;60471;52.150;4.508;2022-09-12T02:03:43;101374.25;;;16.86;75.74
72465;BME280;60471;52.150;4.508;2022-09-12T02:06:21;101377.88;;;16.85;76.16
72465;BME280;60471;52.150;4.508;2022-09-12T02:09:12;101378.56;;;16.74;76.13
72465;BME280;60471;52.150;4.508;2022-09-12T02:11:46;101378.75;;;16.71;76.31
72465;BME280;60471;52.150;4.508;2022-09-12T02:14:21;101369.41;;;16.64;76.80
72465;BME280;60471;52.150;4.508;2022-09-12T02:17:12;101372.84;;;16.66;76.82
72465;BME280;60471;52.150;4.508;2022-09-12T02:19:46;101377.22;;;16.67;76.65
72465;BME280;60471;52.150;4.508;2022-09-12T02:22:20;101371.50;;;16.59;77.07
72465;BME280;60471;52.150;4.508;2022-09-12T02:24:53;101366.59;;;16.52;76.93
72465;BME280;60471;52.150;4.508;2022-09-12T02:27:29;101363.84;;;16.54;77.10
72465;BME280;60471;52.150;4.508;2022-09-12T02:30:07;101357.75;;;16.52;77.07
72465;BME280;60471;52.150;4.508;2022-09-12T02:32:40;101351.72;;;16.63;76.77
72465;BME280;60471;52.150;4.508;2022-09-12T02:35:36;101353.34;;;16.65;76.46
72465;BME280;60471;52.150;4.508;2022-09-12T02:38:53;101352.34;;;16.80;75.79
72465;BME280;60471;52.150;4.508;2022-09-12T02:41:09;101353.66;;;16.88;75.48
72465;BME280;60471;52.150;4.508;2022-09-12T02:43:38;101349.75;;;16.93;75.24
72465;BME280;60471;52.150;4.508;2022-09-12T02:46:21;101352.81;;;16.87;75.02
72465;BME280;60471;52.150;4.508;2022-09-12T02:48:52;101346.72;;;16.85;75.37
72465;BME280;60471;52.150;4.508;2022-09-12T02:51:19;101348.13;;;16.91;75.15
72465;BME280;60471;52.150;4.508;2022-09-12T02:53:46;101336.56;;;17.04;74.64
72465;BME280;60471;52.150;4.508;2022-09-12T02:56:24;101351.59;;;17.05;74.39
72465;BME280;60471;52.150;4.508;2022-09-12T02:58:55;101341.75;;;16.93;74.32
72465;BME280;60471;52.150;4.508;2022-09-12T03:04:58;101336.50;;;16.92;74.35
72465;BME280;60471;52.150;4.508;2022-09-12T03:13:23;101327.13;;;16.86;74.63
72465;BME280;60471;52.150;4.508;2022-09-12T03:19:19;101324.44;;;16.86;74.37
72465;BME280;60471;52.150;4.508;2022-09-12T03:21:56;101324.66;;;16.83;74.59
72465;BME280;60471;52.150;4.508;2022-09-12T03:24:32;101316.25;;;16.89;74.34
72465;BME280;60471;52.150;4.508;2022-09-12T03:27:12;101322.31;;;16.91;74.38
72465;BME280;60471;52.150;4.508;2022-09-12T03:29:52;101321.47;;;16.91;74.30
72465;BME280;60471;52.150;4.508;2022-09-12T03:32:39;101322.00;;;16.83;74.70
72465;BME280;60471;52.150;4.508;2022-09-12T03:35:10;101319.44;;;16.67;75.43
72465;BME280;60471;52.150;4.508;2022-09-12T03:37:38;101320.41;;;16.66;75.50
72465;BME280;60471;52.150;4.508;2022-09-12T03:40:06;101316.97;;;16.64;75.64
72465;BME280;60471;52.150;4.508;2022-09-12T03:42:34;101310.13;;;16.60;75.95
72465;BME280;60471;52.150;4.508;2022-09-12T03:45:00;101308.88;;;16.66;75.51
72465;BME280;60471;52.150;4.508;2022-09-12T03:47:26;101307.47;;;16.60;75.76
72465;BME280;60471;52.150;4.508;2022-09-12T03:49:53;101312.41;;;16.66;75.88
72465;BME280;60471;52.150;4.508;2022-09-12T03:52:19;101311.56;;;16.66;75.65
72465;BME280;60471;52.150;4.508;2022-09-12T03:54:45;101309.75;;;16.66;75.57
72465;BME280;60471;52.150;4.508;2022-09-12T03:57:11;101310.94;;;16.48;76.31
72465;BME280;60471;52.150;4.508;2022-09-12T03:59:37;101308.09;;;16.51;76.01
72465;BME280;60471;52.150;4.508;2022-09-12T04:02:04;101310.75;;;16.51;76.10
72465;BME280;60471;52.150;4.508;2022-09-12T04:04:30;101312.16;;;16.57;75.90
72465;BME280;60471;52.150;4.508;2022-09-12T04:06:57;101313.97;;;16.56;76.04
72465;BME280;60471;52.150;4.508;2022-09-12T04:09:23;101310.34;;;16.57;75.74
72465;BME280;60471;52.150;4.508;2022-09-12T04:11:49;101318.28;;;16.44;76.22
72465;BME280;60471;52.150;4.508;2022-09-12T04:14:15;101307.97;;;16.52;76.38
72465;BME280;60471;52.150;4.508;2022-09-12T04:16:42;101306.19;;;16.53;76.26
72465;BME280;60471;52.150;4.508;2022-09-12T04:19:10;101308.72;;;16.55;76.15
72465;BME280;60471;52.150;4.508;2022-09-12T04:21:36;101311.78;;;16.48;76.42
72465;BME280;60471;52.150;4.508;2022-09-12T04:24:04;101307.66;;;16.57;76.30
72465;BME280;60471;52.150;4.508;2022-09-12T04:26:30;101301.38;;;16.58;75.96
72465;BME280;60471;52.150;4.508;2022-09-12T04:28:57;101309.66;;;16.68;75.94
72465;BME280;60471;52.150;4.508;2022-09-12T04:31:24;101297.75;;;16.59;75.95
72465;BME280;60471;52.150;4.508;2022-09-12T04:33:59;101309.75;;;16.66;76.21
72465;BME280;60471;52.150;4.508;2022-09-12T04:36:27;101304.72;;;16.62;76.23
72465;BME280;60471;52.150;4.508;2022-09-12T04:38:54;101308.41;;;16.59;76.50
72465;BME280;60471;52.150;4.508;2022-09-12T04:41:26;101303.41;;;16.55;76.76
72465;BME280;60471;52.150;4.508;2022-09-12T04:43:59;101301.91;;;16.50;77.01
72465;BME280;60471;52.150;4.508;2022-09-12T04:46:36;101308.63;;;16.56;76.80
72465;BME280;60471;52.150;4.508;2022-09-12T04:49:04;101299.53;;;16.46;77.16
72465;BME280;60471;52.150;4.508;2022-09-12T04:51:32;101309.44;;;16.44;77.15
72465;BME280;60471;52.150;4.508;2022-09-12T04:54:10;101302.84;;;16.49;77.15
72465;BME280;60471;52.150;4.508;2022-09-12T04:56:41;101304.81;;;16.33;77.65
72465;BME280;60471;52.150;4.508;2022-09-12T04:59:11;101306.25;;;16.24;77.94
72465;BME280;60471;52.150;4.508;2022-09-12T05:01:40;101304.53;;;16.23;77.81
72465;BME280;60471;52.150;4.508;2022-09-12T05:04:09;101305.22;;;16.13;78.29
72465;BME280;60471;52.150;4.508;2022-09-12T05:06:36;101303.50;;;16.12;78.28
72465;BME280;60471;52.150;4.508;2022-09-12T05:09:05;101312.03;;;16.17;78.18
72465;BME280;60471;52.150;4.508;2022-09-12T05:11:34;101304.38;;;16.12;78.23
72465;BME280;60471;52.150;4.508;2022-09-12T05:14:02;101309.13;;;16.07;78.67
72465;BME280;60471;52.150;4.508;2022-09-12T05:16:29;101296.47;;;16.11;78.57
72465;BME280;60471;52.150;4.508;2022-09-12T05:18:57;101288.97;;;16.03;78.50
72465;BME280;60471;52.150;4.508;2022-09-12T05:21:25;101284.59;;;16.02;78.80
72465;BME280;60471;52.150;4.508;2022-09-12T05:23:53;101293.75;;;15.98;78.95
72465;BME280;60471;52.150;4.508;2022-09-12T05:26:22;101292.13;;;15.96;78.91
72465;BME280;60471;52.150;4.508;2022-09-12T05:28:50;101279.22;;;15.75;79.50
72465;BME280;60471;52.150;4.508;2022-09-12T05:31:20;101272.06;;;15.90;79.30
72465;BME280;60471;52.150;4.508;2022-09-12T05:33:51;101272.56;;;15.97;78.86
72465;BME280;60471;52.150;4.508;2022-09-12T05:36:27;101279.09;;;15.91;79.51
72465;BME280;60471;52.150;4.508;2022-09-12T05:38:54;101279.94;;;15.91;79.31
72465;BME280;60471;52.150;4.508;2022-09-12T05:41:24;101281.50;;;15.96;78.95
72465;BME280;60471;52.150;4.508;2022-09-12T05:43:53;101286.03;;;15.93;78.92
72465;BME280;60471;52.150;4.508;2022-09-12T05:46:23;101285.19;;;15.79;79.83
72465;BME280;60471;52.150;4.508;2022-09-12T05:48:51;101288.78;;;15.92;79.13
72465;BME280;60471;52.150;4.508;2022-09-12T05:51:21;101287.28;;;15.88;79.20
72465;BME280;60471;52.150;4.508;2022-09-12T05:53:55;101295.47;;;15.85;79.12
72465;BME280;60471;52.150;4.508;2022-09-12T05:56:24;101293.25;;;15.91;79.08
72465;BME280;60471;52.150;4.508;2022-09-12T05:58:56;101289.66;;;15.78;79.46
72465;BME280;60471;52.150;4.508;2022-09-12T06:01:24;101282.53;;;15.79;79.50
72465;BME280;60471;52.150;4.508;2022-09-12T06:03:54;101294.03;;;15.79;79.25
72465;BME280;60471;52.150;4.508;2022-09-12T06:06:24;101284.63;;;15.74;79.28
72465;BME280;60471;52.150;4.508;2022-09-12T06:08:52;101285.66;;;15.71;79.72
72465;BME280;60471;52.150;4.508;2022-09-12T06:11:23;101288.22;;;15.73;79.54
72465;BME280;60471;52.150;4.508;2022-09-12T06:13:52;101276.84;;;15.71;79.69
72465;BME280;60471;52.150;4.508;2022-09-12T06:16:20;101287.38;;;15.86;79.03
72465;BME280;60471;52.150;4.508;2022-09-12T06:18:49;101289.38;;;15.83;78.96
72465;BME280;60471;52.150;4.508;2022-09-12T06:21:19;101283.88;;;15.86;78.92
72465;BME280;60471;52.150;4.508;2022-09-12T06:23:46;101277.59;;;15.87;79.13
72465;BME280;60471;52.150;4.508;2022-09-12T06:26:15;101278.91;;;15.94;79.34
72465;BME280;60471;52.150;4.508;2022-09-12T06:28:44;101269.47;;;16.03;78.77
72465;BME280;60471;52.150;4.508;2022-09-12T06:31:21;101270.41;;;16.16;78.00
72465;BME280;60471;52.150;4.508;2022-09-12T06:33:52;101272.88;;;16.19;78.18
72465;BME280;60471;52.150;4.508;2022-09-12T06:36:24;101271.41;;;16.28;77.95
72465;BME280;60471;52.150;4.508;2022-09-12T06:39:00;101277.56;;;16.42;77.43
72465;BME280;60471;52.150;4.508;2022-09-12T06:41:30;101276.91;;;16.39;77.44
72465;BME280;60471;52.150;4.508;2022-09-12T06:43:58;101272.13;;;16.44;77.54
72465;BME280;60471;52.150;4.508;2022-09-12T06:46:25;101275.59;;;16.32;78.12
72465;BME280;60471;52.150;4.508;2022-09-12T06:48:54;101284.84;;;16.53;77.55
72465;BME280;60471;52.150;4.508;2022-09-12T06:51:22;101283.03;;;16.68;77.07
72465;BME280;60471;52.150;4.508;2022-09-12T06:53:49;101283.81;;;16.83;76.58
72465;BME280;60471;52.150;4.508;2022-09-12T06:56:18;101285.59;;;16.82;77.25
72465;BME280;60471;52.150;4.508;2022-09-12T06:58:47;101279.38;;;16.96;76.54
72465;BME280;60471;52.150;4.508;2022-09-12T07:01:25;101283.75;;;16.97;77.02
72465;BME280;60471;52.150;4.508;2022-09-12T07:03:56;101295.91;;;17.14;76.58
72465;BME280;60471;52.150;4.508;2022-09-12T07:06:27;101293.38;;;17.25;76.23
72465;BME280;60471;52.150;4.508;2022-09-12T07:08:57;101295.84;;;17.15;76.68
72465;BME280;60471;52.150;4.508;2022-09-12T07:11:27;101290.94;;;17.22;75.97
72465;BME280;60471;52.150;4.508;2022-09-12T07:13:58;101289.09;;;17.22;76.41
72465;BME280;60471;52.150;4.508;2022-09-12T07:16:25;101294.66;;;17.19;76.74
72465;BME280;60471;52.150;4.508;2022-09-12T07:18:56;101295.41;;;17.21;76.74
72465;BME280;60471;52.150;4.508;2022-09-12T07:21:23;101294.66;;;17.45;76.37
72465;BME280;60471;52.150;4.508;2022-09-12T07:23:50;101296.41;;;17.58;75.99
72465;BME280;60471;52.150;4.508;2022-09-12T07:26:27;101300.16;;;17.81;74.95
72465;BME280;60471;52.150;4.508;2022-09-12T07:28:55;101289.22;;;17.97;74.38
72465;BME280;60471;52.150;4.508;2022-09-12T07:31:24;101281.38;;;17.70;75.47
72465;BME280;60471;52.150;4.508;2022-09-12T07:33:51;101286.88;;;17.80;75.56
72465;BME280;60471;52.150;4.508;2022-09-12T07:36:20;101286.50;;;18.10;75.17
72465;BME280;60471;52.150;4.508;2022-09-12T07:38:54;101282.28;;;18.31;73.90
72465;BME280;60471;52.150;4.508;2022-09-12T07:41:24;101279.66;;;18.18;74.53
72465;BME280;60471;52.150;4.508;2022-09-12T07:43:55;101284.84;;;18.33;74.54
72465;BME280;60471;52.150;4.508;2022-09-12T07:46:24;101281.13;;;18.59;74.11
72465;BME280;60471;52.150;4.508;2022-09-12T07:48:52;101285.56;;;18.71;73.97
72465;BME280;60471;52.150;4.508;2022-09-12T07:51:21;101287.16;;;19.09;72.51
72465;BME280;60471;52.150;4.508;2022-09-12T07:53:48;101286.81;;;19.14;72.02
72465;BME280;60471;52.150;4.508;2022-09-12T07:56:16;101279.28;;;19.19;71.83
72465;BME280;60471;52.150;4.508;2022-09-12T07:58:43;101283.59;;;19.32;70.96
72465;BME280;60471;52.150;4.508;2022-09-12T08:01:14;101278.13;;;19.34;71.46
72465;BME280;60471;52.150;4.508;2022-09-12T08:03:47;101275.78;;;19.40;70.94
72465;BME280;60471;52.150;4.508;2022-09-12T08:06:16;101283.22;;;19.48;70.14
72465;BME280;60471;52.150;4.508;2022-09-12T08:08:50;101274.09;;;19.51;70.09
72465;BME280;60471;52.150;4.508;2022-09-12T08:11:19;101284.69;;;19.52;70.23
72465;BME280;60471;52.150;4.508;2022-09-12T08:13:47;101290.03;;;19.52;69.74
72465;BME280;60471;52.150;4.508;2022-09-12T08:16:17;101294.53;;;19.52;70.12
72465;BME280;60471;52.150;4.508;2022-09-12T08:18:46;101293.25;;;19.80;68.02
72465;BME280;60471;52.150;4.508;2022-09-12T08:21:18;101288.28;;;19.86;68.63
72465;BME280;60471;52.150;4.508;2022-09-12T08:24:04;101284.38;;;19.90;69.08
72465;BME280;60471;52.150;4.508;2022-09-12T08:26:32;101284.47;;;20.11;67.47
72465;BME280;60471;52.150;4.508;2022-09-12T08:28:59;101281.41;;;20.16;67.49
72465;BME280;60471;52.150;4.508;2022-09-12T08:31:26;101290.31;;;20.16;66.73
72465;BME280;60471;52.150;4.508;2022-09-12T08:33:56;101289.72;;;20.02;66.33
72465;BME280;60471;52.150;4.508;2022-09-12T08:36:25;101279.00;;;20.02;67.22
72465;BME280;60471;52.150;4.508;2022-09-12T08:38:57;101296.03;;;20.12;66.09
72465;BME280;60471;52.150;4.508;2022-09-12T08:47:29;101292.88;;;19.95;65.48
72465;BME280;60471;52.150;4.508;2022-09-12T08:53:11;101289.22;;;19.96;65.74
72465;BME280;60471;52.150;4.508;2022-09-12T08:55:49;101285.31;;;20.23;64.96
72465;BME280;60471;52.150;4.508;2022-09-12T08:58:24;101283.09;;;20.28;64.03
72465;BME280;60471;52.150;4.508;2022-09-12T09:15:46;101275.41;;;20.78;62.90
72465;BME280;60471;52.150;4.508;2022-09-12T09:18:30;101276.19;;;20.69;63.03
72465;BME280;60471;52.150;4.508;2022-09-12T09:21:11;101275.50;;;20.88;62.93
72465;BME280;60471;52.150;4.508;2022-09-12T09:24:04;101274.94;;;21.26;59.94
72465;BME280;60471;52.150;4.508;2022-09-12T09:26:39;101265.44;;;21.22;61.71
72465;BME280;60471;52.150;4.508;2022-09-12T09:29:17;101256.19;;;20.94;62.19
72465;BME280;60471;52.150;4.508;2022-09-12T09:31:51;101256.63;;;21.31;60.40
72465;BME280;60471;52.150;4.508;2022-09-12T09:34:21;101242.97;;;21.44;60.26
72465;BME280;60471;52.150;4.508;2022-09-12T09:37:12;101242.97;;;21.02;60.65
72465;BME280;60471;52.150;4.508;2022-09-12T09:45:21;101229.03;;;21.50;59.94
72465;BME280;60471;52.150;4.508;2022-09-12T09:48:07;101218.84;;;21.53;58.82
72465;BME280;60471;52.150;4.508;2022-09-12T09:50:41;101229.06;;;21.29;58.73
72465;BME280;60471;52.150;4.508;2022-09-12T09:53:51;101228.44;;;21.25;58.40
72465;BME280;60471;52.150;4.508;2022-09-12T09:56:35;101229.19;;;21.06;59.13
72465;BME280;60471;52.150;4.508;2022-09-12T09:59:11;101231.41;;;21.01;58.90
72465;BME280;60471;52.150;4.508;2022-09-12T10:01:48;101218.63;;;21.35;57.77
72465;BME280;60471;52.150;4.508;2022-09-12T10:04:23;101217.34;;;21.60;57.98
72465;BME280;60471;52.150;4.508;2022-09-12T10:06:59;101217.28;;;21.91;56.84
72465;BME280;60471;52.150;4.508;2022-09-12T10:09:32;101214.31;;;21.84;56.17
72465;BME280;60471;52.150;4.508;2022-09-12T10:12:18;101213.81;;;22.10;56.15
72465;BME280;60471;52.150;4.508;2022-09-12T10:15:04;101198.84;;;22.17;55.58
72465;BME280;60471;52.150;4.508;2022-09-12T10:17:45;101201.41;;;22.38;55.69
72465;BME280;60471;52.150;4.508;2022-09-12T10:20:32;101194.63;;;22.53;55.55
72465;BME280;60471;52.150;4.508;2022-09-12T10:23:15;101192.06;;;22.71;54.20
72465;BME280;60471;52.150;4.508;2022-09-12T10:25:55;101196.84;;;22.77;54.56
72465;BME280;60471;52.150;4.508;2022-09-12T10:31:22;101194.16;;;22.67;54.00
72465;BME280;60471;52.150;4.508;2022-09-12T10:33:56;101192.75;;;22.34;55.30
72465;BME280;60471;52.150;4.508;2022-09-12T10:36:25;101194.47;;;22.93;53.56
72465;BME280;60471;52.150;4.508;2022-09-12T10:39:03;101189.66;;;22.48;54.23
72465;BME280;60471;52.150;4.508;2022-09-12T10:41:36;101202.25;;;22.67;53.69
72465;BME280;60471;52.150;4.508;2022-09-12T10:44:15;101193.63;;;22.64;53.97
72465;BME280;60471;52.150;4.508;2022-09-12T10:46:44;101177.69;;;23.09;52.43
72465;BME280;60471;52.150;4.508;2022-09-12T10:49:31;101187.09;;;23.32;53.05
72465;BME280;60471;52.150;4.508;2022-09-12T10:52:24;101192.97;;;23.18;52.34
72465;BME280;60471;52.150;4.508;2022-09-12T10:54:52;101194.19;;;23.33;51.26
72465;BME280;60471;52.150;4.508;2022-09-12T10:57:41;101198.38;;;23.08;50.67
72465;BME280;60471;52.150;4.508;2022-09-12T11:00:15;101191.47;;;22.96;52.29
72465;BME280;60471;52.150;4.508;2022-09-12T11:05:59;101188.94;;;22.95;50.39
72465;BME280;60471;52.150;4.508;2022-09-12T11:08:52;101178.81;;;23.16;50.91
72465;BME280;60471;52.150;4.508;2022-09-12T11:14:15;101189.22;;;22.63;51.14
72465;BME280;60471;52.150;4.508;2022-09-12T11:17:07;101180.72;;;23.33;50.13
72465;BME280;60471;52.150;4.508;2022-09-12T11:35:22;101178.53;;;23.84;50.07
72465;BME280;60471;52.150;4.508;2022-09-12T12:05:38;101155.09;;;24.65;46.64
72465;BME280;60471;52.150;4.508;2022-09-12T12:08:06;101146.56;;;25.30;45.29
72465;BME280;60471;52.150;4.508;2022-09-12T12:10:48;101131.22;;;25.73;45.12
72465;BME280;60471;52.150;4.508;2022-09-12T12:13:32;101128.28;;;25.24;45.14
72465;BME280;60471;52.150;4.508;2022-09-12T12:18:37;101133.84;;;24.44;48.61
72465;BME280;60471;52.150;4.508;2022-09-12T12:24:18;101131.63;;;24.92;47.18
72465;BME280;60471;52.150;4.508;2022-09-12T12:27:03;101132.41;;;25.36;45.52
72465;BME280;60471;52.150;4.508;2022-09-12T12:29:47;101126.50;;;25.75;44.31
72465;BME280;60471;52.150;4.508;2022-09-12T12:34:45;101101.84;;;26.02;44.18
72465;BME280;60471;52.150;4.508;2022-09-12T12:50:27;101102.19;;;25.99;44.54
72465;BME280;60471;52.150;4.508;2022-09-12T12:55:31;101096.50;;;26.43;43.02
72465;BME280;60471;52.150;4.508;2022-09-12T12:58:05;101096.25;;;26.85;42.33
72465;BME280;60471;52.150;4.508;2022-09-12T13:01:13;101110.03;;;27.23;41.64
72465;BME280;60471;52.150;4.508;2022-09-12T13:03:44;101094.03;;;26.88;42.87
72465;BME280;60471;52.150;4.508;2022-09-12T13:06:39;101098.31;;;26.34;41.30
72465;BME280;60471;52.150;4.508;2022-09-12T13:12:37;101083.09;;;27.60;39.43
72465;BME280;60471;52.150;4.508;2022-09-12T13:18:06;101080.28;;;27.14;40.05
72465;BME280;60471;52.150;4.508;2022-09-12T13:20:46;101077.00;;;27.89;38.19
72465;BME280;60471;52.150;4.508;2022-09-12T13:23:27;101066.06;;;28.43;36.47
72465;BME280;60471;52.150;4.508;2022-09-12T13:25:57;101072.91;;;27.93;38.17
72465;BME280;60471;52.150;4.508;2022-09-12T13:28:27;101062.03;;;28.16;37.67
72465;BME280;60471;52.150;4.508;2022-09-12T13:33:57;101045.69;;;28.62;36.84
72465;BME280;60471;52.150;4.508;2022-09-12T13:45:37;101038.94;;;28.20;36.20
72465;BME280;60471;52.150;4.508;2022-09-12T13:48:05;101065.81;;;27.92;36.33
72465;BME280;60471;52.150;4.508;2022-09-12T13:50:47;101047.28;;;27.73;36.17
72465;BME280;60471;52.150;4.508;2022-09-12T13:53:23;101045.00;;;27.54;37.91
72465;BME280;60471;52.150;4.508;2022-09-12T13:55:57;101044.28;;;27.37;38.29
72465;BME280;60471;52.150;4.508;2022-09-12T13:58:31;101033.28;;;28.07;35.95
72465;BME280;60471;52.150;4.508;2022-09-12T14:01:11;101036.34;;;28.79;34.73
72465;BME280;60471;52.150;4.508;2022-09-12T14:03:54;101020.28;;;29.86;33.03
72465;BME280;60471;52.150;4.508;2022-09-12T14:06:48;101035.16;;;29.48;33.71
72465;BME280;60471;52.150;4.508;2022-09-12T14:09:25;101022.72;;;29.60;34.93
72465;BME280;60471;52.150;4.508;2022-09-12T14:11:55;101030.59;;;28.74;34.96
72465;BME280;60471;52.150;4.508;2022-09-12T14:14:34;101015.53;;;29.52;34.02
72465;BME280;60471;52.150;4.508;2022-09-12T14:17:23;101013.22;;;29.34;35.40
72465;BME280;60471;52.150;4.508;2022-09-12T14:19:50;101026.00;;;28.75;36.26
72465;BME280;60471;52.150;4.508;2022-09-12T14:22:17;101010.16;;;29.80;34.49
72465;BME280;60471;52.150;4.508;2022-09-12T14:24:46;101013.25;;;30.82;31.40
72465;BME280;60471;52.150;4.508;2022-09-12T14:27:23;101013.16;;;30.63;32.06
72465;BME280;60471;52.150;4.508;2022-09-12T14:30:05;101029.50;;;30.35;32.61
72465;BME280;60471;52.150;4.508;2022-09-12T14:33:18;101009.22;;;29.66;34.09
72465;BME280;60471;52.150;4.508;2022-09-12T14:35:48;101013.44;;;29.18;35.76
72465;BME280;60471;52.150;4.508;2022-09-12T14:38:29;101007.38;;;29.95;34.26
72465;BME280;60471;52.150;4.508;2022-09-12T14:41:07;101006.00;;;29.84;34.54
72465;BME280;60471;52.150;4.508;2022-09-12T14:43:45;100994.25;;;29.77;34.45
72465;BME280;60471;52.150;4.508;2022-09-12T14:46:26;100997.72;;;30.14;33.58
72465;BME280;60471;52.150;4.508;2022-09-12T14:48:59;101000.59;;;29.27;34.14
72465;BME280;60471;52.150;4.508;2022-09-12T14:51:42;100986.53;;;29.59;34.94
72465;BME280;60471;52.150;4.508;2022-09-12T14:57:37;101005.22;;;27.77;37.45
72465;BME280;60471;52.150;4.508;2022-09-12T15:02:38;101000.34;;;29.07;35.82
72465;BME280;60471;52.150;4.508;2022-09-12T15:07:56;100984.94;;;29.65;34.94
72465;BME280;60471;52.150;4.508;2022-09-12T15:10:35;100988.19;;;31.00;33.19
72465;BME280;60471;52.150;4.508;2022-09-12T15:13:26;100983.41;;;31.09;31.59
72465;BME280;60471;52.150;4.508;2022-09-12T15:15:55;100978.97;;;30.25;33.44
72465;BME280;60471;52.150;4.508;2022-09-12T15:18:25;100992.34;;;30.20;33.88
72465;BME280;60471;52.150;4.508;2022-09-12T15:20:59;100995.50;;;30.86;32.78
72465;BME280;60471;52.150;4.508;2022-09-12T15:23:33;100991.56;;;29.62;35.15
72465;BME280;60471;52.150;4.508;2022-09-12T15:26:06;100982.16;;;29.07;36.01
72465;BME280;60471;52.150;4.508;2022-09-12T15:28:36;100983.25;;;29.28;35.30
72465;BME280;60471;52.150;4.508;2022-09-12T15:31:27;100979.91;;;28.22;37.77
72465;BME280;60471;52.150;4.508;2022-09-12T15:33:58;100980.25;;;26.57;40.80
72465;BME280;60471;52.150;4.508;2022-09-12T15:36:26;100972.69;;;26.45;41.01
72465;BME280;60471;52.150;4.508;2022-09-12T15:38:56;100979.31;;;26.01;42.63
72465;BME280;60471;52.150;4.508;2022-09-12T15:41:30;100981.63;;;26.53;41.33
72465;BME280;60471;52.150;4.508;2022-09-12T15:44:02;100979.28;;;27.52;39.43
72465;BME280;60471;52.150;4.508;2022-09-12T15:46:30;100988.06;;;27.99;38.75
72465;BME280;60471;52.150;4.508;2022-09-12T15:48:56;100976.09;;;27.48;39.49
72465;BME280;60471;52.150;4.508;2022-09-12T15:51:22;100965.91;;;26.33;41.95
72465;BME280;60471;52.150;4.508;2022-09-12T15:53:49;100960.03;;;26.13;42.95
72465;BME280;60471;52.150;4.508;2022-09-12T15:56:18;100951.53;;;27.72;39.70
72465;BME280;60471;52.150;4.508;2022-09-12T15:58:47;100958.50;;;27.21;40.69
72465;BME280;60471;52.150;4.508;2022-09-12T16:01:15;100957.38;;;26.68;41.89
72465;BME280;60471;52.150;4.508;2022-09-12T16:03:45;100949.06;;;26.06;43.51
72465;BME280;60471;52.150;4.508;2022-09-12T16:06:12;100947.75;;;27.59;40.08
72465;BME280;60471;52.150;4.508;2022-09-12T16:08:40;100935.63;;;26.53;42.72
72465;BME280;60471;52.150;4.508;2022-09-12T16:11:11;100938.09;;;25.99;43.36
72465;BME280;60471;52.150;4.508;2022-09-12T16:13:46;100925.75;;;25.40;45.23